createdAt,value
2018-12-10T00:00:31.847Z,2.20
2018-12-10T00:03:06.639Z,2.90
2018-12-10T00:05:37.058Z,3.87
2018-12-10T00:08:07.352Z,2.80
2018-12-10T00:10:41.538Z,3.70
2018-12-10T00:13:08.048Z,4.63
2018-12-10T00:15:38.544Z,3.40
2018-12-10T00:18:08.842Z,4.50
2018-12-10T00:20:39.218Z,4.77
2018-12-10T00:23:09.610Z,4.63
2018-12-10T00:25:39.756Z,2.43
2018-12-10T00:28:09.951Z,4.50
2018-12-10T00:30:40.415Z,3.27
2018-12-10T00:33:10.686Z,2.40
2018-12-10T00:35:41.055Z,2.43
2018-12-10T00:38:11.763Z,1.03
2018-12-10T00:40:41.947Z,3.23
2018-12-10T00:43:12.295Z,1.77
2018-12-10T00:45:42.655Z,2.77
2018-12-10T00:48:12.938Z,2.60
2018-12-10T00:50:43.548Z,3.57
2018-12-10T00:53:13.795Z,5.60
2018-12-10T00:55:44.347Z,4.67
2018-12-10T00:58:14.762Z,4.70
2018-12-10T01:00:44.971Z,4.43
2018-12-10T01:03:15.348Z,4.17
2018-12-10T01:05:45.811Z,4.07
2018-12-10T01:08:16.084Z,5.53
2018-12-10T01:10:46.539Z,3.93
2018-12-10T01:13:16.839Z,4.87
2018-12-10T01:15:47.239Z,5.27
2018-12-10T01:18:17.647Z,3.63
2018-12-10T01:20:47.940Z,6.23
2018-12-10T01:23:18.356Z,3.77
2018-12-10T01:25:48.660Z,5.93
2018-12-10T01:28:19.067Z,4.80
2018-12-10T01:30:49.514Z,3.97
2018-12-10T01:33:19.856Z,3.03
2018-12-10T01:35:50.167Z,6.53
2018-12-10T01:38:20.496Z,5.27
2018-12-10T01:40:50.979Z,3.40
2018-12-10T01:43:21.244Z,5.20
2018-12-10T01:45:51.673Z,5.77
2018-12-10T01:48:22.107Z,7.73
2018-12-10T01:50:52.411Z,5.93
2018-12-10T01:53:22.748Z,6.20
2018-12-10T01:55:53.100Z,3.50
2018-12-10T01:58:23.539Z,3.63
2018-12-10T02:00:53.727Z,3.77
2018-12-10T02:03:24.007Z,6.10
2018-12-10T02:05:54.255Z,3.47
2018-12-10T02:08:24.964Z,4.03
2018-12-10T02:10:55.324Z,4.17
2018-12-10T02:13:25.744Z,3.70
2018-12-10T02:15:56.031Z,3.03
2018-12-10T02:18:26.139Z,2.57
2018-12-10T02:20:56.465Z,2.20
2018-12-10T02:23:26.743Z,7.60
2018-12-10T02:25:57.010Z,3.07
2018-12-10T02:28:32.211Z,1.90
2018-12-10T02:31:02.627Z,3.43
2018-12-10T02:33:33.079Z,4.63
2018-12-10T02:36:03.353Z,2.20
2018-12-10T02:38:33.767Z,2.50
2018-12-10T02:41:04.215Z,2.13
2018-12-10T02:43:34.588Z,3.50
2018-12-10T02:46:04.967Z,2.63
2018-12-10T02:48:35.662Z,4.23
2018-12-10T02:51:06.025Z,5.10
2018-12-10T02:53:36.415Z,3.97
2018-12-10T02:56:06.698Z,5.23
2018-12-10T02:58:36.971Z,4.23
2018-12-10T03:01:07.356Z,4.27
2018-12-10T03:03:37.603Z,3.80
2018-12-10T03:06:08.169Z,4.87
2018-12-10T03:08:38.617Z,4.30
2018-12-10T03:11:08.860Z,4.97
2018-12-10T03:13:39.163Z,3.73
2018-12-10T03:16:09.526Z,3.13
2018-12-10T03:18:39.872Z,3.13
2018-12-10T03:21:10.250Z,4.07
2018-12-10T03:23:40.548Z,4.13
2018-12-10T03:26:10.868Z,3.67
2018-12-10T03:28:41.147Z,2.83
2018-12-10T03:31:11.421Z,4.20
2018-12-10T03:33:41.757Z,5.83
2018-12-10T03:36:12.107Z,3.60
2018-12-10T03:38:42.451Z,5.53
2018-12-10T03:41:12.822Z,4.53
2018-12-10T03:43:43.187Z,5.37
2018-12-10T03:46:13.447Z,5.30
2018-12-10T03:48:43.748Z,4.07
2018-12-10T03:51:14.006Z,6.30
2018-12-10T03:53:44.702Z,5.57
2018-12-10T03:56:15.003Z,2.57
2018-12-10T03:58:45.441Z,3.23
2018-12-10T04:01:15.722Z,2.13
2018-12-10T04:03:48.206Z,0.30
2018-12-10T04:06:18.652Z,1.17
2018-12-10T04:08:49.044Z,1.63
2018-12-10T04:11:19.308Z,3.73
2018-12-10T04:13:49.749Z,0.57
2018-12-10T04:16:20.047Z,0.43
2018-12-10T04:18:50.227Z,2.00
2018-12-10T04:21:20.598Z,0.20
2018-12-10T04:23:50.864Z,1.03
2018-12-10T04:26:21.244Z,2.00
2018-12-10T04:28:51.579Z,1.30
2018-12-10T04:31:21.880Z,1.87
2018-12-10T04:33:51.846Z,2.40
2018-12-10T04:36:22.564Z,2.17
2018-12-10T04:38:52.700Z,3.77
2018-12-10T04:41:22.984Z,2.93
2018-12-10T04:43:53.252Z,5.30
2018-12-10T04:46:24.011Z,5.00
2018-12-10T04:48:56.491Z,2.80
2018-12-10T04:51:26.988Z,6.13
2018-12-10T04:53:57.611Z,5.27
2018-12-10T04:56:28.126Z,5.63
2018-12-10T04:58:58.497Z,4.30
2018-12-10T05:01:28.831Z,4.73
2018-12-10T05:03:59.325Z,4.37
2018-12-10T05:06:29.683Z,7.50
2018-12-10T05:08:59.971Z,5.63
2018-12-10T05:11:30.192Z,4.87
2018-12-10T05:14:00.384Z,3.03
2018-12-10T05:16:30.692Z,2.93
2018-12-10T05:19:01.002Z,2.03
2018-12-10T05:21:31.316Z,4.90
2018-12-10T05:24:01.737Z,3.10
2018-12-10T05:26:32.111Z,3.37
2018-12-10T05:29:02.493Z,5.70
2018-12-10T05:31:32.935Z,3.97
2018-12-10T05:34:03.147Z,3.27
2018-12-10T05:36:33.451Z,2.10
2018-12-10T05:39:04.247Z,4.70
2018-12-10T05:41:34.595Z,2.47
2018-12-10T05:44:04.884Z,2.03
2018-12-10T05:46:35.187Z,3.63
2018-12-10T05:49:05.455Z,2.67
2018-12-10T05:51:35.747Z,4.93
2018-12-10T05:54:06.135Z,6.33
2018-12-10T05:56:36.352Z,5.77
2018-12-10T05:59:06.695Z,5.80
2018-12-10T06:01:37.119Z,2.60
2018-12-10T06:04:07.435Z,1.77
2018-12-10T06:06:38.155Z,2.03
2018-12-10T06:09:08.576Z,2.70
2018-12-10T06:11:38.939Z,2.20
2018-12-10T06:14:09.280Z,4.83
2018-12-10T06:16:39.628Z,4.30
2018-12-10T06:19:09.875Z,3.10
2018-12-10T06:21:40.220Z,5.13
2018-12-10T06:24:10.639Z,5.10
2018-12-10T06:26:41.028Z,4.77
2018-12-10T06:29:11.372Z,5.27
2018-12-10T06:31:41.836Z,4.83
2018-12-10T06:34:12.045Z,6.33
2018-12-10T06:36:42.396Z,4.60
2018-12-10T06:39:12.740Z,5.23
2018-12-10T06:41:43.000Z,4.77
2018-12-10T06:44:13.447Z,4.90
2018-12-10T06:46:43.707Z,6.90
2018-12-10T06:49:13.980Z,4.90
2018-12-10T06:51:44.331Z,5.30
2018-12-10T06:54:14.671Z,6.20
2018-12-10T06:56:44.907Z,5.93
2018-12-10T06:59:15.076Z,4.73
2018-12-10T07:01:45.479Z,2.73
2018-12-10T07:04:15.830Z,5.40
2018-12-10T07:06:46.288Z,3.23
2018-12-10T07:09:16.716Z,2.97
2018-12-10T07:11:47.004Z,3.07
2018-12-10T07:14:17.290Z,7.93
2018-12-10T07:16:48.048Z,2.13
2018-12-10T07:19:18.484Z,6.40
2018-12-10T07:21:48.846Z,4.23
2018-12-10T07:24:19.083Z,5.20
2018-12-10T07:26:49.383Z,1.77
2018-12-10T07:29:19.169Z,4.47
2018-12-10T07:31:49.472Z,2.13
2018-12-10T07:34:19.723Z,2.57
2018-12-10T07:36:50.052Z,2.30
2018-12-10T07:39:20.368Z,3.03
2018-12-10T07:41:50.723Z,3.60
2018-12-10T07:44:21.018Z,2.10
2018-12-10T07:46:51.323Z,4.00
2018-12-10T07:49:21.659Z,3.27
2018-12-10T07:51:52.052Z,2.37
2018-12-10T07:54:22.359Z,3.17
2018-12-10T07:56:52.652Z,3.77
2018-12-10T07:59:22.259Z,5.27
2018-12-10T08:01:52.452Z,4.63
2018-12-10T08:04:22.891Z,3.97
2018-12-10T08:06:53.608Z,5.83
2018-12-10T08:09:23.895Z,7.40
2018-12-10T08:11:54.285Z,3.37
2018-12-10T08:14:24.576Z,8.30
2018-12-10T08:16:54.799Z,5.47
2018-12-10T08:19:25.043Z,7.13
2018-12-10T08:21:55.306Z,6.50
2018-12-10T08:24:25.584Z,4.83
2018-12-10T08:26:55.936Z,5.67
2018-12-10T08:29:26.183Z,5.10
2018-12-10T08:31:56.530Z,6.23
2018-12-10T08:34:26.885Z,7.13
2018-12-10T08:36:57.195Z,7.17
2018-12-10T08:39:27.496Z,5.97
2018-12-10T08:41:57.935Z,7.53
2018-12-10T08:44:28.168Z,5.90
2018-12-10T08:46:58.512Z,10.83
2018-12-10T08:49:28.703Z,4.53
2018-12-10T08:51:58.989Z,7.10
2018-12-10T08:54:29.230Z,3.60
2018-12-10T08:56:59.552Z,4.77
2018-12-10T08:59:29.849Z,6.23
2018-12-10T09:02:00.164Z,8.97
2018-12-10T09:04:30.528Z,5.73
2018-12-10T09:07:00.931Z,8.73
2018-12-10T09:09:31.177Z,5.73
2018-12-10T09:12:01.500Z,8.77
2018-12-10T09:14:31.658Z,7.37
2018-12-10T09:17:02.004Z,5.33
2018-12-10T09:19:32.311Z,4.40
2018-12-10T09:22:02.607Z,4.07
2018-12-10T09:24:32.815Z,5.80
2018-12-10T09:27:03.019Z,4.87
2018-12-10T09:29:33.257Z,5.63
2018-12-10T09:32:03.835Z,5.47
2018-12-10T09:34:34.151Z,8.47
2018-12-10T09:37:04.464Z,6.97
2018-12-10T09:39:34.591Z,6.70
2018-12-10T09:42:04.975Z,22.57
2018-12-10T09:44:35.176Z,15.83
2018-12-10T09:47:05.568Z,7.93
2018-12-10T09:49:35.825Z,15.33
2018-12-10T09:52:06.124Z,12.47
2018-12-10T09:54:36.436Z,36.50
2018-12-10T09:57:07.072Z,19.97
2018-12-10T09:59:37.327Z,3.47
2018-12-10T10:02:12.268Z,5.90
2018-12-10T10:04:38.140Z,5.53
2018-12-10T10:07:08.508Z,4.80
2018-12-10T10:09:38.752Z,5.10
2018-12-10T10:12:09.072Z,5.97
2018-12-10T10:14:39.227Z,4.57
2018-12-10T10:17:09.609Z,3.97
2018-12-10T10:19:40.172Z,6.00
2018-12-10T10:22:10.376Z,6.23
2018-12-10T10:24:40.728Z,6.27
2018-12-10T10:27:11.048Z,5.63
2018-12-10T10:29:41.379Z,4.40
2018-12-10T10:32:11.840Z,7.17
2018-12-10T10:34:42.061Z,4.20
2018-12-10T10:37:12.403Z,4.30
2018-12-10T10:39:42.640Z,4.50
2018-12-10T10:42:12.937Z,4.67
2018-12-10T10:44:43.175Z,5.10
2018-12-10T10:47:13.595Z,6.73
2018-12-10T10:49:43.755Z,5.27
2018-12-10T10:52:14.112Z,3.83
2018-12-10T10:54:44.311Z,3.33
2018-12-10T10:57:14.695Z,3.77
2018-12-10T10:59:44.892Z,4.70
2018-12-10T11:02:23.209Z,4.17
2018-12-10T11:04:53.352Z,3.13
2018-12-10T11:07:23.692Z,6.67
2018-12-10T11:09:54.001Z,5.80
2018-12-10T11:12:24.207Z,3.97
2018-12-10T11:14:54.374Z,3.00
2018-12-10T11:17:24.616Z,4.67
2018-12-10T11:19:54.898Z,3.93
2018-12-10T11:22:25.187Z,5.97
2018-12-10T11:24:55.631Z,6.17
2018-12-10T11:27:25.900Z,2.43
2018-12-10T11:29:56.228Z,6.67
2018-12-10T11:32:26.497Z,5.33
2018-12-10T11:34:56.773Z,4.93
2018-12-10T11:37:27.046Z,6.67
2018-12-10T11:39:57.378Z,5.30
2018-12-10T11:42:27.616Z,7.17
2018-12-10T11:44:57.971Z,5.33
2018-12-10T11:47:28.325Z,5.63
2018-12-10T11:49:58.468Z,4.67
2018-12-10T11:52:28.655Z,4.80
2018-12-10T11:54:58.783Z,4.20
2018-12-10T11:57:29.128Z,4.67
2018-12-10T11:59:59.426Z,6.33
2018-12-10T12:02:30.061Z,4.70
2018-12-10T12:04:59.973Z,6.97
2018-12-10T12:07:30.567Z,7.03
2018-12-10T12:10:00.834Z,6.50
2018-12-10T12:12:31.150Z,7.37
2018-12-10T12:15:01.415Z,5.43
2018-12-10T12:17:31.607Z,5.43
2018-12-10T12:20:01.887Z,6.80
2018-12-10T12:22:32.175Z,4.30
2018-12-10T12:25:02.496Z,6.83
2018-12-10T12:27:32.699Z,5.37
2018-12-10T12:30:02.902Z,6.97
2018-12-10T12:32:33.099Z,7.63
2018-12-10T12:35:03.599Z,5.57
2018-12-10T12:37:33.996Z,8.20
2018-12-10T12:40:04.602Z,5.40
2018-12-10T12:42:34.916Z,5.97
2018-12-10T12:45:04.494Z,4.57
2018-12-10T12:47:34.723Z,8.27
2018-12-10T12:50:05.107Z,7.50
2018-12-10T12:52:35.436Z,9.33
2018-12-10T12:55:05.855Z,9.37
2018-12-10T12:57:36.103Z,1.00
2018-12-10T13:00:06.490Z,1.10
2018-12-10T13:02:36.729Z,1.70
2018-12-10T13:05:07.028Z,4.87
2018-12-10T13:07:37.287Z,2.87
2018-12-10T13:10:08.720Z,4.00
2018-12-10T13:12:38.966Z,6.63
2018-12-10T13:15:09.662Z,3.83
2018-12-10T13:17:39.807Z,4.90
2018-12-10T13:20:10.101Z,5.30
2018-12-10T13:22:47.247Z,5.33
2018-12-10T13:25:10.703Z,7.40
2018-12-10T13:27:41.048Z,5.83
2018-12-10T13:30:11.371Z,6.57
2018-12-10T13:32:41.727Z,5.47
2018-12-10T13:35:11.942Z,4.33
2018-12-10T13:37:45.875Z,6.10
2018-12-10T13:40:12.664Z,6.47
2018-12-10T13:42:42.952Z,5.10
2018-12-10T13:45:13.131Z,6.77
2018-12-10T13:47:43.451Z,9.73
2018-12-10T13:50:13.843Z,6.43
2018-12-10T13:52:44.388Z,7.47
2018-12-10T13:55:14.609Z,4.87
2018-12-10T13:57:44.787Z,6.93
2018-12-10T14:00:15.022Z,7.67
2018-12-10T14:02:45.219Z,7.77
2018-12-10T14:05:16.380Z,7.17
2018-12-10T14:07:48.144Z,4.77
2018-12-10T14:10:16.994Z,8.43
2018-12-10T14:12:47.307Z,7.17
2018-12-10T14:15:17.851Z,6.03
2018-12-10T14:17:48.081Z,8.67
2018-12-10T14:20:18.363Z,5.87
2018-12-10T14:22:48.775Z,5.77
2018-12-10T14:25:25.918Z,8.50
2018-12-10T14:27:56.104Z,9.20
2018-12-10T14:30:26.500Z,6.50
2018-12-10T14:32:56.755Z,9.27
2018-12-10T14:35:27.020Z,6.73
2018-12-10T14:37:57.227Z,11.70
2018-12-10T14:40:27.563Z,8.23
2018-12-10T14:42:58.525Z,9.47
2018-12-10T14:45:28.928Z,5.20
2018-12-10T14:47:59.135Z,6.90
2018-12-10T14:50:29.387Z,7.87
2018-12-10T14:52:59.989Z,5.27
2018-12-10T14:55:30.216Z,9.30
2018-12-10T14:58:00.536Z,6.33
2018-12-10T15:00:30.507Z,7.43
2018-12-10T15:03:00.908Z,9.07
2018-12-10T15:05:31.184Z,6.00
2018-12-10T15:08:01.624Z,5.37
2018-12-10T15:10:31.860Z,9.50
2018-12-10T15:13:02.161Z,9.03
2018-12-10T15:15:32.726Z,6.70
2018-12-10T15:18:03.452Z,8.80
2018-12-10T15:20:33.636Z,6.83
2018-12-10T15:23:03.964Z,10.30
2018-12-10T15:25:34.608Z,3.63
2018-12-10T15:28:04.899Z,8.47
2018-12-10T15:30:34.599Z,8.87
2018-12-10T15:33:04.832Z,4.27
2018-12-10T15:35:34.520Z,10.47
2018-12-10T15:38:04.734Z,9.70
2018-12-10T15:40:35.032Z,8.90
2018-12-10T15:43:05.359Z,8.90
2018-12-10T15:45:35.452Z,9.23
2018-12-10T15:48:05.696Z,9.20
2018-12-10T15:50:35.895Z,7.63
2018-12-10T15:53:06.138Z,6.83
2018-12-10T15:55:36.299Z,10.53
2018-12-10T15:58:06.748Z,8.93
2018-12-10T16:00:37.157Z,8.17
2018-12-10T16:03:07.559Z,6.83
2018-12-10T16:05:37.864Z,8.60
2018-12-10T16:08:08.179Z,11.23
2018-12-10T16:10:38.471Z,9.13
2018-12-10T16:13:08.655Z,9.47
2018-12-10T16:15:38.866Z,7.93
2018-12-10T16:18:09.153Z,11.03
2018-12-10T16:20:39.295Z,9.30
2018-12-10T16:23:09.692Z,8.30
2018-12-10T16:25:39.920Z,9.23
2018-12-10T16:28:10.115Z,6.50
2018-12-10T16:30:40.531Z,8.90
2018-12-10T16:33:10.863Z,8.27
2018-12-10T16:35:41.108Z,9.13
2018-12-10T16:38:11.432Z,8.17
2018-12-10T16:40:41.699Z,12.73
2018-12-10T16:43:11.952Z,6.77
2018-12-10T16:45:42.204Z,7.93
2018-12-10T16:48:12.476Z,10.57
2018-12-10T16:50:42.880Z,6.33
2018-12-10T16:53:13.248Z,6.40
2018-12-10T16:55:43.539Z,6.77
2018-12-10T16:58:13.773Z,6.87
2018-12-10T17:00:44.007Z,4.77
2018-12-10T17:03:14.412Z,7.67
2018-12-10T17:05:44.695Z,8.03
2018-12-10T17:08:14.984Z,6.90
2018-12-10T17:10:45.308Z,7.20
2018-12-10T17:13:15.623Z,10.33
2018-12-10T17:15:45.985Z,8.63
2018-12-10T17:18:16.235Z,7.13
2018-12-10T17:20:46.495Z,7.97
2018-12-10T17:23:16.799Z,6.60
2018-12-10T17:25:47.075Z,9.20
2018-12-10T17:28:17.390Z,10.30
2018-12-10T17:30:47.747Z,8.60
2018-12-10T17:33:18.131Z,9.80
2018-12-10T17:35:48.348Z,10.67
2018-12-10T17:38:19.625Z,11.07
2018-12-10T17:40:49.898Z,4.80
2018-12-10T17:43:20.113Z,11.57
2018-12-10T17:45:50.359Z,8.90
2018-12-10T17:48:20.771Z,6.93
2018-12-10T17:50:51.064Z,8.67
2018-12-10T17:53:21.404Z,10.63
2018-12-10T17:55:51.723Z,9.03
2018-12-10T17:58:22.084Z,7.70
2018-12-10T18:00:51.803Z,14.10
2018-12-10T18:03:21.968Z,8.90
2018-12-10T18:05:52.212Z,8.63
2018-12-10T18:08:22.456Z,7.10
2018-12-10T18:10:53.120Z,9.67
2018-12-10T18:13:23.671Z,8.87
2018-12-10T18:15:53.888Z,6.90
2018-12-10T18:18:24.059Z,8.90
2018-12-10T18:20:54.358Z,6.53
2018-12-10T18:23:24.560Z,9.33
2018-12-10T18:25:54.840Z,8.97
2018-12-10T18:28:25.061Z,6.10
2018-12-10T18:30:55.694Z,8.17
2018-12-10T18:33:25.927Z,5.50
2018-12-10T18:35:56.451Z,9.77
2018-12-10T18:38:26.717Z,7.80
2018-12-10T18:40:57.015Z,6.43
2018-12-10T18:43:27.265Z,9.67
2018-12-10T18:45:57.768Z,9.87
2018-12-10T18:48:28.072Z,6.40
2018-12-10T18:50:58.248Z,7.87
2018-12-10T18:53:28.634Z,6.10
2018-12-10T18:56:09.180Z,7.07
2018-12-10T18:58:39.615Z,8.33
2018-12-10T19:01:09.911Z,5.73
2018-12-10T19:03:40.148Z,6.43
2018-12-10T19:06:10.427Z,12.07
2018-12-10T19:08:42.142Z,9.83
2018-12-10T19:11:12.619Z,6.80
2018-12-10T19:13:42.964Z,10.27
2018-12-10T19:16:13.223Z,12.37
2018-12-10T19:18:43.436Z,5.67
2018-12-10T19:21:13.653Z,5.97
2018-12-10T19:23:43.886Z,6.00
2018-12-10T19:26:14.172Z,4.80
2018-12-10T19:28:44.483Z,6.07
2018-12-10T19:31:14.907Z,7.30
2018-12-10T19:33:45.339Z,8.70
2018-12-10T19:36:15.719Z,9.60
2018-12-10T19:38:46.024Z,6.90
2018-12-10T19:41:16.324Z,7.03
2018-12-10T19:43:46.574Z,10.53
2018-12-10T19:46:16.658Z,9.97
2018-12-10T19:48:47.046Z,10.67
2018-12-10T19:51:17.280Z,9.23
2018-12-10T19:53:47.562Z,10.30
2018-12-10T19:56:17.930Z,8.33
2018-12-10T19:58:48.368Z,9.27
2018-12-10T20:01:18.769Z,12.13
2018-12-10T20:03:49.104Z,12.07
2018-12-10T20:06:26.237Z,10.03
2018-12-10T20:08:56.524Z,11.63
2018-12-10T20:11:26.794Z,8.57
2018-12-10T20:13:57.081Z,10.80
2018-12-10T20:16:26.834Z,8.57
2018-12-10T20:18:57.054Z,9.93
2018-12-10T20:21:27.315Z,12.23
2018-12-10T20:23:57.654Z,17.57
2018-12-10T20:26:28.091Z,13.50
2018-12-10T20:28:58.489Z,16.87
2018-12-10T20:31:28.943Z,15.50
2018-12-10T20:33:59.276Z,21.60
2018-12-10T20:36:29.584Z,15.93
2018-12-10T20:38:59.800Z,11.17
2018-12-10T20:41:30.068Z,13.53
2018-12-10T20:44:00.349Z,13.83
2018-12-10T20:46:30.707Z,14.90
2018-12-10T20:49:00.391Z,14.23
2018-12-10T20:51:29.899Z,12.67
2018-12-10T20:53:59.512Z,11.27
2018-12-10T20:56:29.657Z,13.67
2018-12-10T20:59:00.064Z,10.83
2018-12-10T21:01:30.243Z,11.37
2018-12-10T21:04:00.567Z,6.93
2018-12-10T21:06:37.567Z,9.83
2018-12-10T21:09:10.168Z,9.17
2018-12-10T21:11:40.463Z,8.73
2018-12-10T21:14:11.000Z,8.70
2018-12-10T21:16:41.620Z,7.07
2018-12-10T21:19:11.963Z,8.73
2018-12-10T21:21:42.247Z,7.83
2018-12-10T21:24:12.583Z,6.93
2018-12-10T21:26:42.882Z,9.60
2018-12-10T21:29:13.375Z,6.57
2018-12-10T21:31:43.944Z,7.77
2018-12-10T21:34:14.371Z,7.80
2018-12-10T21:36:44.676Z,7.87
2018-12-10T21:39:14.980Z,7.70
2018-12-10T21:41:44.654Z,11.23
2018-12-10T21:44:14.867Z,11.60
2018-12-10T21:46:45.310Z,9.53
2018-12-10T21:49:15.456Z,7.23
2018-12-10T21:51:45.130Z,9.73
2018-12-10T21:54:15.403Z,6.77
2018-12-10T21:56:45.681Z,8.87
2018-12-10T21:59:16.047Z,7.17
2018-12-10T22:01:46.377Z,8.17
2018-12-10T22:04:16.648Z,12.20
2018-12-10T22:06:47.115Z,10.33
2018-12-10T22:09:17.399Z,8.50
2018-12-10T22:11:47.769Z,9.40
2018-12-10T22:14:18.155Z,11.77
2018-12-10T22:16:48.512Z,10.93
2018-12-10T22:19:18.849Z,10.40
2018-12-10T22:21:49.129Z,11.73
2018-12-10T22:24:18.834Z,13.07
2018-12-10T22:26:48.989Z,10.97
2018-12-10T22:29:19.280Z,10.60
2018-12-10T22:31:49.546Z,11.03
2018-12-10T22:34:20.007Z,9.03
2018-12-10T22:36:51.365Z,11.30
2018-12-10T22:39:22.227Z,11.37
2018-12-10T22:41:51.605Z,13.40
2018-12-10T22:44:21.704Z,10.70
2018-12-10T22:46:53.288Z,13.67
2018-12-10T22:49:23.365Z,10.53
2018-12-10T22:51:53.376Z,10.97
2018-12-10T22:54:23.694Z,7.30
2018-12-10T22:56:54.065Z,13.33
2018-12-10T22:59:24.409Z,11.23
2018-12-10T23:01:54.152Z,10.20
2018-12-10T23:04:24.316Z,11.07
2018-12-10T23:06:54.364Z,9.67
2018-12-10T23:09:23.871Z,7.47
2018-12-10T23:11:53.913Z,7.17
2018-12-10T23:14:24.425Z,10.47
2018-12-10T23:16:54.486Z,10.40
2018-12-10T23:19:24.680Z,10.37
2018-12-10T23:21:54.754Z,13.87
2018-12-10T23:24:24.889Z,13.47
2018-12-10T23:26:54.936Z,8.67
2018-12-10T23:29:25.029Z,9.67
2018-12-10T23:31:55.044Z,11.30
2018-12-10T23:34:25.136Z,8.23
2018-12-10T23:36:55.364Z,9.47
2018-12-10T23:39:25.815Z,9.43
2018-12-10T23:41:56.423Z,9.83
2018-12-10T23:44:31.830Z,8.70
2018-12-10T23:47:02.072Z,9.77
2018-12-10T23:49:32.398Z,8.07
2018-12-10T23:52:02.842Z,10.60
2018-12-10T23:54:33.293Z,10.30
2018-12-10T23:57:03.595Z,7.40
2018-12-10T23:59:33.811Z,9.17
